Terminal Aerodrome Forecast
Issued by NWS Dallas/Fort Worth, TX

Home | Current Version | Previous Version | Text Only | Print | Product List | Glossary On
Versions: 1 2 3 4 5 6 7 8 9 10 11 12 13 14 15 16 17 18 19 20 21 22 23 24 25 26 27 28 29 30 31 32 33 34 35
000
FTUS44 KFWD 280521
TAFDFW
TAF
KDFW 280521Z 2806/0112 04008KT 5SM -FZRASN BR SCT009 BKN015 OVC040
     FM280800 06008KT 5SM -FZDZ OVC008
      TEMPO 2812/2816 2SM -FZDZ BR OVC004
     FM281900 08008KT 4SM -RA BR OVC007
     FM010000 06005KT 2SM -DZ BR OVC005=

USA.gov is the U.S. government's official web portal to all federal, state and local government web resources and services.